| time (UTC) | temp F | wind direction | speed MPH | gust MPH | rain 1hr in | rain 24hr in | rain mn in | humidity % | barometer mb |
| 20260510050223 | 46 | 86 | 0.0 | 0.0 | 0.00 | 0.00 | 0.00 | 35 | 1011.7 |
| 20260510045203 | 47 | 86 | 0.0 | 0.0 | 0.00 | 0.00 | 0.00 | 32 | 1011.5 |
| 20260510044214 | 48 | 85 | 0.0 | 0.0 | 0.00 | 0.00 | 0.00 | 27 | 1011.2 |
| 20260510043238 | 48 | 86 | 0.0 | 0.0 | 0.00 | 0.00 | 0.00 | 31 | 1011.0 |
| 20260510042237 | 47 | 103 | 0.0 | 0.0 | 0.00 | 0.00 | 0.00 | 32 | 1010.5 |
| 20260510041220 | 48 | 179 | 0.0 | 0.0 | 0.00 | 0.00 | 0.00 | 34 | 1010.3 |
| 20260510040243 | 49 | 179 | 0.0 | 0.0 | 0.00 | 0.00 | 0.00 | 29 | 1009.7 |
| 20260510035230 | 49 | 180 | 0.0 | 0.0 | 0.00 | 0.00 | 0.00 | 30 | 1009.6 |
| 20260510034239 | 50 | 180 | 0.0 | 0.0 | 0.00 | 0.00 | 0.00 | 34 | 1009.4 |
| 20260510033217 | 51 | 34 | 0.0 | 0.0 | 0.00 | 0.00 | 0.00 | 27 | 1008.9 |
| 20260510032235 | 53 | 34 | 0.0 | 0.0 | 0.00 | 0.00 | 0.00 | 18 | 1008.8 |
| 20260510031246 | 53 | 34 | 0.0 | 1.0 | 0.00 | 0.00 | 0.00 | 16 | 1008.6 |
| 20260510030212 | 55 | 88 | 0.0 | 0.0 | 0.00 | 0.00 | 0.00 | 14 | 1008.3 |
| 20260510024003 | 58 | 89 | 0.0 | 1.0 | 0.00 | 0.00 | 0.00 | 11 | 1007.7 |
| 20260510023016 | 60 | 66 | 0.0 | 0.0 | 0.00 | 0.00 | 0.00 | 11 | 1007.7 |
| 20260510021951 | 61 | 20 | 0.0 | 0.0 | 0.00 | 0.00 | 0.00 | 10 | 1007.7 |
| 20260510021014 | 62 | 129 | 0.0 | 0.0 | 0.00 | 0.00 | 0.00 | 11 | 1007.7 |
| 20260510015944 | 64 | 196 | 0.0 | 0.0 | 0.00 | 0.00 | 0.00 | 9 | 1007.5 |
| 20260510014943 | 66 | 199 | 0.0 | 0.0 | 0.00 | 0.00 | 0.00 | 7 | 1007.5 |
| 20260510013937 | 67 | 172 | 0.0 | 0.0 | 0.00 | 0.00 | 0.00 | 2 | 1007.3 |
| 20260510012939 | 68 | 90 | 0.0 | 0.0 | 0.00 | 0.00 | 0.00 | 3 | 1007.2 |
| 20260510011955 | 68 | 89 | 0.0 | 0.0 | 0.00 | 0.00 | 0.00 | 5 | 1007.0 |
| 20260510011003 | 69 | 88 | 0.0 | 2.0 | 0.00 | 0.00 | 0.00 | 5 | 1006.8 |
| 20260510004821 | 70 | 196 | 0.0 | 0.0 | 0.00 | 0.00 | 0.00 | 7 | 1006.6 |
| 20260510003823 | 70 | 219 | 0.0 | 5.0 | 0.00 | 0.00 | 0.00 | 6 | 1006.6 |
| 20260510002833 | 70 | 168 | 0.0 | 0.0 | 0.00 | 0.00 | 0.00 | 7 | 1006.3 |
| 20260510001852 | 70 | 167 | 0.0 | 1.0 | 0.00 | 0.00 | 0.00 | 8 | 1006.3 |
| 20260510000908 | 70 | 214 | 0.0 | 4.0 | 0.00 | 0.00 | 0.00 | 8 | 1006.2 |
| 20260509235859 | 71 | 191 | 0.0 | 0.0 | 0.00 | 0.00 | 0.00 | 10 | 1006.2 |
| 20260509234914 | 71 | 188 | 1.0 | 4.0 | 0.00 | 0.00 | 0.00 | 7 | 1006.2 |
| 20260509233931 | 71 | 186 | 1.0 | 5.0 | 0.00 | 0.00 | 0.00 | 9 | 1006.1 |
| 20260509232942 | 71 | 214 | 1.0 | 4.0 | 0.00 | 0.00 | 0.00 | 9 | 1006.1 |
| 20260509231919 | 71 | 193 | 0.0 | 6.0 | 0.00 | 0.00 | 0.00 | 9 | 1006.3 |
| 20260509230925 | 71 | 160 | 2.0 | 6.0 | 0.00 | 0.00 | 0.00 | 7 | 1006.3 |
| 20260509225929 | 71 | 155 | 2.0 | 5.0 | 0.00 | 0.00 | 0.00 | 8 | 1006.3 |
| 20260509224909 | 71 | 200 | 1.0 | 4.0 | 0.00 | 0.00 | 0.00 | 9 | 1006.4 |
| 20260509223851 | 71 | 167 | 0.0 | 2.0 | 0.00 | 0.00 | 0.00 | 8 | 1006.3 |
| 20260509222841 | 71 | 198 | 1.0 | 7.0 | 0.00 | 0.00 | 0.00 | 8 | 1006.3 |
| 20260509221902 | 71 | 264 | 0.0 | 9.0 | 0.00 | 0.00 | 0.00 | 9 | 1006.3 |
| 20260509220925 | 71 | 158 | 2.0 | 9.0 | 0.00 | 0.00 | 0.00 | 10 | 1006.3 |
| 20260509215916 | 71 | 215 | 2.0 | 9.0 | 0.00 | 0.00 | 0.00 | 11 | 1006.3 |
| 20260509214844 | 72 | 163 | 3.0 | 9.0 | 0.00 | 0.00 | 0.00 | 10 | 1006.5 |
| 20260509213851 | 72 | 210 | 3.0 | 13.0 | 0.00 | 0.00 | 0.00 | 9 | 1006.7 |
| 20260509212834 | 73 | 195 | 4.0 | 13.0 | 0.00 | 0.00 | 0.00 | 9 | 1006.7 |
| 20260509211804 | 73 | 185 | 4.0 | 11.0 | 0.00 | 0.00 | 0.00 | 8 | 1006.8 |
| 20260509210748 | 73 | 219 | 4.0 | 13.0 | 0.00 | 0.00 | 0.00 | 10 | 1006.8 |
| 20260509205805 | 72 | 234 | 3.0 | 13.0 | 0.00 | 0.00 | 0.00 | 9 | 1006.7 |
| 20260509203710 | 73 | 185 | 4.0 | 11.0 | 0.00 | 0.00 | 0.00 | 9 | 1006.9 |
| 20260509202714 | 73 | 220 | 5.0 | 10.0 | 0.00 | 0.00 | 0.00 | 8 | 1007.0 |
| 20260509201721 | 72 | 218 | 4.0 | 15.0 | 0.00 | 0.00 | 0.00 | 9 | 1007.2 |
| 20260509200729 | 71 | 191 | 4.0 | 15.0 | 0.00 | 0.00 | 0.00 | 9 | 1007.4 |
| 20260509194629 | 72 | 207 | 4.0 | 16.0 | 0.00 | 0.00 | 0.00 | 9 | 1007.4 |
| 20260509193633 | 72 | 203 | 5.0 | 12.0 | 0.00 | 0.00 | 0.00 | 7 | 1007.7 |
| 20260509192632 | 72 | 199 | 3.0 | 13.0 | 0.00 | 0.00 | 0.00 | 10 | 1007.7 |
| 20260509191656 | 71 | 156 | 4.0 | 13.0 | 0.00 | 0.00 | 0.00 | 8 | 1007.9 |
| 20260509190706 | 72 | 203 | 2.0 | 13.0 | 0.00 | 0.00 | 0.00 | 8 | 1008.1 |
| 20260509185716 | 71 | 91 | 3.0 | 14.0 | 0.00 | 0.00 | 0.00 | 8 | 1008.0 |
| 20260509184650 | 71 | 205 | 5.0 | 14.0 | 0.00 | 0.00 | 0.00 | 10 | 1008.1 |
| 20260509183637 | 72 | 193 | 3.0 | 10.0 | 0.00 | 0.00 | 0.00 | 11 | 1008.2 |
| 20260509181502 | 71 | 208 | 3.0 | 10.0 | 0.00 | 0.00 | 0.00 | 12 | 1008.3 |
| 20260509180503 | 71 | 236 | 3.0 | 10.0 | 0.00 | 0.00 | 0.00 | 12 | 1008.5 |
| 20260509175524 | 70 | 203 | 3.0 | 11.0 | 0.00 | 0.00 | 0.00 | 13 | 1008.6 |
| 20260509174538 | 70 | 175 | 2.0 | 11.0 | 0.00 | 0.00 | 0.00 | 16 | 1008.7 |
| 20260509173507 | 69 | 217 | 3.0 | 8.0 | 0.00 | 0.00 | 0.00 | 17 | 1008.9 |
| 20260509172519 | 68 | 215 | 1.0 | 8.0 | 0.00 | 0.00 | 0.00 | 19 | 1009.0 |
| 20260509171515 | 68 | 158 | 2.0 | 7.0 | 0.00 | 0.00 | 0.00 | 19 | 1009.2 |
| 20260509170459 | 67 | 207 | 0.0 | 4.0 | 0.00 | 0.00 | 0.00 | 21 | 1009.3 |
| 20260509165448 | 66 | 162 | 0.0 | 1.0 | 0.00 | 0.00 | 0.00 | 23 | 1009.5 |
| 20260509164420 | 65 | 200 | 0.0 | 3.0 | 0.00 | 0.00 | 0.00 | 24 | 1009.8 |
| 20260509163445 | 65 | 191 | 0.0 | 1.0 | 0.00 | 0.00 | 0.00 | 23 | 1009.8 |
| 20260509161332 | 62 | 174 | 0.0 | 0.0 | 0.00 | 0.00 | 0.00 | 26 | 1010.0 |
| 20260509160314 | 60 | 187 | 0.0 | 2.0 | 0.00 | 0.00 | 0.00 | 28 | 1010.1 |
| 20260509155327 | 60 | 180 | 0.0 | 2.0 | 0.00 | 0.00 | 0.00 | 29 | 1010.3 |
| 20260509153159 | 58 | 198 | 0.0 | 2.0 | 0.00 | 0.00 | 0.00 | 32 | 1010.7 |
| 20260509152124 | 57 | 187 | 1.0 | 3.0 | 0.00 | 0.00 | 0.00 | 34 | 1010.8 |
| 20260509151120 | 56 | 184 | 0.0 | 2.0 | 0.00 | 0.00 | 0.00 | 34 | 1011.0 |
| 20260509144925 | 55 | 196 | 0.0 | 3.0 | 0.00 | 0.00 | 0.00 | 39 | 1011.3 |
| 20260509143923 | 54 | 187 | 0.0 | 0.0 | 0.00 | 0.00 | 0.00 | 42 | 1011.5 |
| 20260509142911 | 52 | 207 | 0.0 | 0.0 | 0.00 | 0.00 | 0.00 | 42 | 1011.6 |
| 20260509141843 | 50 | 205 | 0.0 | 2.0 | 0.00 | 0.00 | 0.00 | 44 | 1011.6 |
| 20260509140819 | 48 | 182 | 0.0 | 2.0 | 0.00 | 0.00 | 0.00 | 45 | 1011.8 |
| 20260509135746 | 47 | 160 | 0.0 | 0.0 | 0.00 | 0.00 | 0.00 | 49 | 1011.7 |
| 20260509134753 | 46 | 117 | 0.0 | 0.0 | 0.00 | 0.00 | 0.00 | 55 | 1011.8 |
| 20260509133747 | 44 | 117 | 0.0 | 0.0 | 0.00 | 0.00 | 0.00 | 58 | 1011.9 |
| 20260509132743 | 42 | 117 | 0.0 | 0.0 | 0.00 | 0.00 | 0.00 | 60 | 1012.0 |
| 20260509131718 | 41 | 117 | 0.0 | 0.0 | 0.00 | 0.00 | 0.00 | 62 | 1012.1 |
| 20260509130706 | 39 | 117 | 0.0 | 0.0 | 0.00 | 0.00 | 0.00 | 65 | 1012.0 |
| 20260509125717 | 38 | 117 | 0.0 | 0.0 | 0.00 | 0.00 | 0.00 | 66 | 1011.8 |
| 20260509124657 | 38 | 117 | 0.0 | 0.0 | 0.00 | 0.00 | 0.00 | 67 | 1011.7 |
| 20260509123713 | 37 | 117 | 0.0 | 0.0 | 0.00 | 0.00 | 0.00 | 67 | 1011.6 |
| 20260509122655 | 36 | 117 | 0.0 | 0.0 | 0.00 | 0.00 | 0.00 | 66 | 1011.3 |
| 20260509120536 | 37 | 117 | 0.0 | 0.0 | 0.00 | 0.00 | 0.00 | 65 | 1010.9 |
| 20260509115502 | 37 | 117 | 0.0 | 0.0 | 0.00 | 0.00 | 0.00 | 64 | 1010.8 |
| 20260509114430 | 37 | 117 | 0.0 | 0.0 | 0.00 | 0.00 | 0.00 | 64 | 1010.6 |
| 20260509112328 | 38 | 117 | 0.0 | 0.0 | 0.00 | 0.00 | 0.00 | 65 | 1010.2 |
| 20260509111325 | 38 | 117 | 0.0 | 0.0 | 0.00 | 0.00 | 0.00 | 64 | 1010.2 |
| 20260509110301 | 38 | 117 | 0.0 | 0.0 | 0.00 | 0.00 | 0.00 | 63 | 1010.2 |
| 20260509105235 | 39 | 117 | 0.0 | 0.0 | 0.00 | 0.00 | 0.00 | 63 | 1010.3 |
| 20260509104225 | 39 | 116 | 0.0 | 0.0 | 0.00 | 0.00 | 0.00 | 63 | 1010.3 |
| 20260509103212 | 39 | 117 | 0.0 | 0.0 | 0.00 | 0.00 | 0.00 | 62 | 1010.1 |
| 20260509102225 | 40 | 117 | 0.0 | 0.0 | 0.00 | 0.00 | 0.00 | 62 | 1009.8 |
| 20260509101214 | 40 | 116 | 0.0 | 0.0 | 0.00 | 0.00 | 0.00 | 61 | 1009.7 |
| 20260509100220 | 40 | 117 | 0.0 | 0.0 | 0.00 | 0.00 | 0.00 | 61 | 1009.7 |
| 20260509095242 | 41 | 117 | 0.0 | 0.0 | 0.00 | 0.00 | 0.00 | 59 | 1009.5 |
| 20260509094235 | 41 | 116 | 0.0 | 0.0 | 0.00 | 0.00 | 0.00 | 59 | 1009.5 |
| 20260509093230 | 41 | 116 | 0.0 | 0.0 | 0.00 | 0.00 | 0.00 | 60 | 1009.4 |
| 20260509092214 | 41 | 117 | 0.0 | 0.0 | 0.00 | 0.00 | 0.00 | 59 | 1009.3 |
| 20260509091210 | 42 | 117 | 0.0 | 0.0 | 0.00 | 0.00 | 0.00 | 59 | 1009.2 |
| 20260509090519 | 41 | 123 | 0.0 | 0.0 | 0.00 | 0.00 | 0.00 | 80 | 1009.1 |
| 20260509085516 | 42 | 123 | 0.0 | 0.0 | 0.00 | 0.00 | 0.00 | 80 | 1009.1 |
| 20260509084539 | 43 | 242 | 0.0 | 0.0 | 0.00 | 0.00 | 0.00 | 79 | 1008.9 |
| 20260509082506 | 44 | 240 | 0.0 | 0.0 | 0.00 | 0.00 | 0.00 | 77 | 1008.8 |
| 20260509081508 | 44 | 240 | 0.0 | 0.0 | 0.00 | 0.00 | 0.00 | 78 | 1008.7 |
| 20260509080457 | 45 | 18 | 0.0 | 0.0 | 0.00 | 0.00 | 0.00 | 73 | 1008.6 |
| 20260509075426 | 46 | 18 | 0.0 | 0.0 | 0.00 | 0.00 | 0.00 | 72 | 1008.5 |
| 20260509074424 | 46 | 18 | 0.0 | 0.0 | 0.00 | 0.00 | 0.00 | 70 | 1008.4 |
| 20260509073420 | 47 | 18 | 0.0 | 0.0 | 0.00 | 0.00 | 0.00 | 71 | 1008.4 |
| 20260509072425 | 47 | 158 | 0.0 | 0.0 | 0.00 | 0.00 | 0.00 | 69 | 1008.5 |
| 20260509071415 | 48 | 260 | 0.0 | 0.0 | 0.00 | 0.00 | 0.00 | 65 | 1008.5 |
| 20260509070434 | 48 | 293 | 0.0 | 0.0 | 0.00 | 0.00 | 0.00 | 66 | 1008.5 |
| 20260509065435 | 49 | 325 | 0.0 | 0.0 | 0.00 | 0.00 | 0.00 | 65 | 1008.4 |
| 20260509064407 | 50 | 325 | 0.0 | 0.0 | 0.00 | 0.00 | 0.00 | 67 | 1008.5 |
| 20260509063401 | 51 | 325 | 0.0 | 0.0 | 0.00 | 0.00 | 0.00 | 69 | 1008.5 |
| 20260509061306 | 53 | 325 | 0.0 | 0.0 | 0.00 | 0.00 | 0.00 | 59 | 1008.4 |
| 20260509054102 | 54 | 267 | 0.0 | 0.0 | 0.00 | 0.00 | 0.00 | 53 | 1008.3 |
| 20260509053047 | 54 | 354 | 0.0 | 0.0 | 0.00 | 0.00 | 0.00 | 53 | 1008.2 |
| 20260509052052 | 53 | 20 | 0.0 | 0.0 | 0.00 | 0.00 | 0.00 | 61 | 1008.1 |